createdAt,value
2018-08-31T00:01:32.661Z,22.80
2018-08-31T00:04:44.943Z,17.47
2018-08-31T00:07:42.581Z,22.43
2018-08-31T00:13:35.486Z,22.13
2018-08-31T00:16:03.825Z,22.87
2018-08-31T00:18:32.294Z,21.13
2018-08-31T00:21:00.645Z,18.87
2018-08-31T00:24:45.154Z,18.60
2018-08-31T00:27:30.333Z,21.17
2018-08-31T00:34:23.755Z,18.63
2018-08-31T00:39:44.875Z,23.47
2018-08-31T00:44:44.602Z,16.60
2018-08-31T00:47:13.055Z,17.87
2018-08-31T00:49:41.408Z,17.13
2018-08-31T00:52:09.765Z,27.67
2018-08-31T00:54:38.102Z,20.03
2018-08-31T00:57:06.500Z,22.17
2018-08-31T00:59:34.859Z,18.80
2018-08-31T01:02:03.204Z,26.03
2018-08-31T01:04:31.593Z,21.57
2018-08-31T01:06:59.949Z,17.67
2018-08-31T01:09:28.310Z,20.00
2018-08-31T01:11:56.911Z,17.73
2018-08-31T01:14:25.325Z,15.27
2018-08-31T01:16:53.626Z,14.87
2018-08-31T01:19:21.937Z,17.03
2018-08-31T01:21:50.265Z,15.80
2018-08-31T01:24:18.594Z,13.33
2018-08-31T01:26:46.968Z,17.60
2018-08-31T01:29:15.273Z,20.10
2018-08-31T01:31:43.721Z,17.43
2018-08-31T01:34:12.086Z,17.10
2018-08-31T01:36:40.540Z,20.10
2018-08-31T01:39:09.119Z,19.53
2018-08-31T01:41:37.448Z,16.43
2018-08-31T01:44:05.880Z,18.63
2018-08-31T01:46:34.279Z,16.03
2018-08-31T01:49:02.721Z,20.33
2018-08-31T01:51:30.998Z,19.20
2018-08-31T01:53:59.490Z,16.13
2018-08-31T01:56:27.835Z,17.40
2018-08-31T01:58:56.312Z,19.40
2018-08-31T02:01:24.651Z,14.47
2018-08-31T02:03:53.145Z,18.40
2018-08-31T02:06:21.605Z,14.57
2018-08-31T02:08:55.603Z,11.60
2018-08-31T02:11:23.952Z,19.60
2018-08-31T02:13:52.342Z,13.90
2018-08-31T02:16:20.716Z,13.27
2018-08-31T02:18:49.203Z,12.67
2018-08-31T02:21:17.603Z,12.90
2018-08-31T02:23:46.012Z,11.13
2018-08-31T02:26:14.566Z,12.50
2018-08-31T02:28:42.984Z,14.67
2018-08-31T02:31:11.363Z,12.70
2018-08-31T02:33:39.753Z,13.20
2018-08-31T02:36:08.091Z,13.40
2018-08-31T02:38:36.509Z,14.60
2018-08-31T02:41:04.976Z,12.73
2018-08-31T02:43:33.376Z,18.07
2018-08-31T02:46:01.753Z,13.40
2018-08-31T02:48:30.170Z,14.27
2018-08-31T02:50:58.484Z,17.10
2018-08-31T02:53:26.760Z,11.63
2018-08-31T02:55:55.086Z,16.30
2018-08-31T02:58:23.429Z,12.77
2018-08-31T03:00:51.767Z,16.07
2018-08-31T03:03:20.161Z,16.67
2018-08-31T03:05:48.484Z,11.03
2018-08-31T03:08:16.899Z,14.10
2018-08-31T03:10:45.359Z,16.90
2018-08-31T03:13:13.697Z,15.60
2018-08-31T03:15:42.013Z,11.40
2018-08-31T03:18:10.338Z,13.50
2018-08-31T03:20:38.622Z,15.73
2018-08-31T03:23:07.095Z,12.00
2018-08-31T03:25:35.528Z,16.33
2018-08-31T03:28:03.926Z,14.77
2018-08-31T03:30:32.272Z,11.23
2018-08-31T03:33:00.605Z,10.87
2018-08-31T03:35:28.909Z,7.23
2018-08-31T03:37:57.241Z,17.93
2018-08-31T03:40:25.624Z,13.43
2018-08-31T03:42:54.020Z,11.40
2018-08-31T03:45:22.757Z,18.83
2018-08-31T03:47:51.127Z,12.63
2018-08-31T03:50:19.497Z,10.37
2018-08-31T03:52:48.603Z,9.90
2018-08-31T03:55:17.051Z,14.47
2018-08-31T03:57:45.426Z,12.67
2018-08-31T04:00:13.817Z,13.13
2018-08-31T04:02:42.103Z,8.63
2018-08-31T04:05:10.436Z,11.43
2018-08-31T04:07:38.726Z,10.70
2018-08-31T04:10:07.821Z,10.30
2018-08-31T04:12:36.094Z,14.07
2018-08-31T04:15:04.612Z,11.60
2018-08-31T04:17:32.897Z,8.60
2018-08-31T04:20:01.273Z,12.40
2018-08-31T04:22:29.648Z,9.53
2018-08-31T04:24:57.996Z,11.50
2018-08-31T04:27:26.391Z,10.50
2018-08-31T04:29:54.733Z,14.13
2018-08-31T04:32:23.102Z,10.93
2018-08-31T04:34:51.385Z,12.90
2018-08-31T04:37:19.792Z,8.60
2018-08-31T04:39:48.215Z,9.70
2018-08-31T04:42:16.588Z,15.40
2018-08-31T04:44:45.026Z,9.93
2018-08-31T04:47:13.430Z,9.60
2018-08-31T04:49:41.766Z,8.97
2018-08-31T04:52:10.104Z,11.93
2018-08-31T04:54:38.469Z,11.53
2018-08-31T04:57:06.805Z,13.77
2018-08-31T04:59:35.247Z,9.70
2018-08-31T05:02:03.609Z,10.30
2018-08-31T05:04:32.053Z,17.90
2018-08-31T05:07:00.373Z,12.30
2018-08-31T05:09:28.749Z,10.83
2018-08-31T05:11:57.297Z,8.87
2018-08-31T05:14:25.650Z,11.30
2018-08-31T05:16:53.961Z,14.53
2018-08-31T05:19:22.277Z,9.53
2018-08-31T05:21:50.580Z,9.90
2018-08-31T05:24:19.010Z,16.43
2018-08-31T05:26:47.373Z,23.90
2018-08-31T05:29:15.796Z,10.23
2018-08-31T05:31:44.150Z,10.43
2018-08-31T05:34:12.608Z,8.90
2018-08-31T05:36:40.912Z,14.50
2018-08-31T05:39:10.906Z,8.40
2018-08-31T05:41:39.480Z,18.40
2018-08-31T05:44:08.005Z,11.17
2018-08-31T05:46:36.390Z,8.83
2018-08-31T05:49:04.766Z,10.17
2018-08-31T05:51:33.131Z,10.77
2018-08-31T05:54:01.465Z,16.87
2018-08-31T05:56:29.838Z,12.83
2018-08-31T05:58:58.234Z,13.20
2018-08-31T06:01:26.614Z,17.17
2018-08-31T06:03:54.981Z,13.97
2018-08-31T06:06:23.325Z,14.70
2018-08-31T06:08:51.672Z,10.00
2018-08-31T06:11:20.063Z,13.03
2018-08-31T06:13:48.447Z,19.00
2018-08-31T06:16:16.822Z,10.20
2018-08-31T06:18:45.141Z,9.08
2018-08-31T06:21:13.482Z,13.43
2018-08-31T06:23:41.773Z,19.30
2018-08-31T06:26:10.100Z,12.80
2018-08-31T06:28:38.454Z,13.98
2018-08-31T06:31:06.773Z,13.18
2018-08-31T06:33:35.200Z,9.80
2018-08-31T06:36:03.519Z,13.40
2018-08-31T06:38:31.913Z,11.23
2018-08-31T06:41:00.258Z,11.40
2018-08-31T06:43:28.658Z,13.40
2018-08-31T06:45:57.037Z,11.18
2018-08-31T06:48:25.362Z,12.60
2018-08-31T06:50:53.748Z,11.47
2018-08-31T06:53:22.162Z,15.87
2018-08-31T06:55:50.532Z,13.95
2018-08-31T06:58:18.856Z,11.33
2018-08-31T07:00:47.224Z,10.48
2018-08-31T07:03:15.520Z,13.50
2018-08-31T07:05:43.999Z,10.30
2018-08-31T07:08:13.091Z,16.32
2018-08-31T07:10:41.485Z,12.20
2018-08-31T07:13:09.794Z,13.10
2018-08-31T07:15:38.174Z,11.65
2018-08-31T07:18:06.570Z,13.00
2018-08-31T07:20:34.913Z,8.78
2018-08-31T07:23:03.482Z,10.50
2018-08-31T07:25:31.818Z,12.47
2018-08-31T07:28:00.164Z,12.10
2018-08-31T07:30:28.489Z,11.22
2018-08-31T07:32:56.833Z,12.75
2018-08-31T07:35:25.212Z,13.10
2018-08-31T07:37:53.648Z,24.60
2018-08-31T07:40:22.018Z,12.47
2018-08-31T07:42:50.307Z,18.20
2018-08-31T07:45:18.702Z,14.33
2018-08-31T07:47:47.117Z,17.55
2018-08-31T07:50:15.431Z,14.38
2018-08-31T07:52:43.814Z,13.32
2018-08-31T07:55:13.031Z,13.50
2018-08-31T07:57:41.433Z,12.23
2018-08-31T08:00:09.832Z,25.40
2018-08-31T08:02:38.262Z,14.95
2018-08-31T08:05:06.706Z,22.82
2018-08-31T08:07:35.087Z,16.67
2018-08-31T08:10:03.566Z,16.07
2018-08-31T08:12:31.908Z,17.37
2018-08-31T08:15:00.438Z,22.90
2018-08-31T08:17:28.821Z,17.15
2018-08-31T08:19:57.286Z,15.90
2018-08-31T08:22:25.885Z,17.12
2018-08-31T08:24:54.393Z,12.75
2018-08-31T08:27:22.813Z,18.95
2018-08-31T08:29:51.157Z,15.35
2018-08-31T08:32:19.601Z,16.77
2018-08-31T08:34:47.980Z,13.85
2018-08-31T08:37:16.462Z,25.68
2018-08-31T08:39:44.957Z,23.50
2018-08-31T08:42:13.507Z,19.57
2018-08-31T08:44:43.297Z,14.75
2018-08-31T08:47:11.756Z,20.80
2018-08-31T08:49:40.196Z,17.85
2018-08-31T08:52:08.618Z,20.00
2018-08-31T08:54:37.007Z,32.25
2018-08-31T08:57:05.604Z,25.52
2018-08-31T08:59:34.641Z,22.85
2018-08-31T09:02:03.116Z,27.13
2018-08-31T09:04:31.598Z,19.15
2018-08-31T09:06:59.986Z,23.20
2018-08-31T09:09:28.333Z,25.72
2018-08-31T09:11:56.764Z,23.83
2018-08-31T09:14:25.016Z,25.95
2018-08-31T09:16:53.390Z,24.50
2018-08-31T09:19:21.780Z,28.95
2018-08-31T09:21:50.214Z,23.00
2018-08-31T09:24:18.595Z,24.18
2018-08-31T09:26:46.988Z,25.55
2018-08-31T09:29:17.233Z,31.42
2018-08-31T09:31:45.614Z,25.00
2018-08-31T09:34:14.006Z,26.75
2018-08-31T09:36:42.378Z,23.73
2018-08-31T09:39:10.766Z,26.75
2018-08-31T09:41:39.213Z,22.48
2018-08-31T09:44:07.681Z,22.45
2018-08-31T09:46:35.993Z,25.55
2018-08-31T09:49:04.505Z,22.48
2018-08-31T09:51:32.854Z,27.42
2018-08-31T09:54:01.211Z,24.50
2018-08-31T09:56:29.531Z,25.57
2018-08-31T09:58:57.987Z,24.67
2018-08-31T10:01:32.042Z,27.15
2018-08-31T10:04:01.288Z,25.55
2018-08-31T10:06:30.886Z,20.68
2018-08-31T10:08:59.272Z,24.07
2018-08-31T10:11:28.017Z,26.23
2018-08-31T10:13:56.358Z,26.37
2018-08-31T10:16:24.789Z,30.50
2018-08-31T10:18:53.922Z,26.40
2018-08-31T10:21:22.320Z,29.87
2018-08-31T10:23:50.728Z,31.65
2018-08-31T10:26:19.199Z,33.70
2018-08-31T10:28:47.482Z,30.65
2018-08-31T10:31:15.838Z,41.10
2018-08-31T10:33:44.209Z,30.85
2018-08-31T10:36:12.746Z,33.88
2018-08-31T10:38:41.113Z,41.53
2018-08-31T10:41:09.544Z,29.05
2018-08-31T10:43:37.885Z,30.02
2018-08-31T10:46:06.321Z,34.50
2018-08-31T10:48:34.702Z,28.20
2018-08-31T10:51:03.185Z,35.33
2018-08-31T10:53:31.534Z,32.78
2018-08-31T10:55:59.931Z,31.10
2018-08-31T10:58:28.265Z,28.70
2018-08-31T11:00:56.753Z,29.50
2018-08-31T11:03:25.149Z,32.28
2018-08-31T11:05:53.603Z,40.58
2018-08-31T11:08:21.990Z,32.20
2018-08-31T11:10:50.322Z,28.73
2018-08-31T11:13:18.698Z,35.70
2018-08-31T11:15:47.013Z,32.67
2018-08-31T11:18:15.475Z,31.42
2018-08-31T11:20:43.847Z,33.63
2018-08-31T11:23:12.228Z,31.52
2018-08-31T11:25:40.637Z,22.90
2018-08-31T11:28:09.085Z,28.50
2018-08-31T11:30:37.474Z,30.08
2018-08-31T11:33:05.908Z,35.25
2018-08-31T11:35:34.350Z,32.83
2018-08-31T11:38:02.714Z,30.10
2018-08-31T11:40:31.132Z,35.20
2018-08-31T11:42:59.597Z,35.68
2018-08-31T11:45:27.996Z,27.70
2018-08-31T11:47:56.371Z,25.40
2018-08-31T11:50:24.741Z,31.42
2018-08-31T11:52:53.188Z,28.73
2018-08-31T11:55:21.680Z,35.90
2018-08-31T11:57:50.008Z,28.65
2018-08-31T12:00:18.448Z,40.25
2018-08-31T12:02:46.853Z,35.45
2018-08-31T12:05:15.261Z,31.67
2018-08-31T12:07:43.725Z,26.75
2018-08-31T12:10:12.125Z,29.30
2018-08-31T12:12:40.518Z,33.92
2018-08-31T12:15:08.905Z,32.63
2018-08-31T12:17:37.321Z,29.42
2018-08-31T12:20:06.495Z,30.43
2018-08-31T12:22:34.893Z,31.77
2018-08-31T12:25:03.408Z,40.20
2018-08-31T12:27:31.825Z,28.95
2018-08-31T12:30:00.306Z,31.33
2018-08-31T12:32:29.806Z,31.70
2018-08-31T12:34:58.270Z,33.20
2018-08-31T12:37:26.666Z,29.17
2018-08-31T12:39:55.092Z,29.80
2018-08-31T12:42:23.514Z,33.13
2018-08-31T12:44:51.883Z,37.70
2018-08-31T12:47:20.256Z,32.47
2018-08-31T12:49:48.641Z,29.17
2018-08-31T12:52:17.034Z,32.23
2018-08-31T12:54:45.638Z,29.10
2018-08-31T12:57:14.035Z,33.40
2018-08-31T12:59:46.915Z,33.70
2018-08-31T13:02:15.406Z,35.20
2018-08-31T13:04:43.793Z,36.80
2018-08-31T13:07:12.169Z,26.90
2018-08-31T13:09:40.623Z,30.48
2018-08-31T13:12:09.047Z,35.73
2018-08-31T13:14:38.081Z,28.17
2018-08-31T13:17:06.497Z,24.23
2018-08-31T13:19:34.932Z,28.85
2018-08-31T13:22:03.372Z,26.48
2018-08-31T13:24:31.807Z,27.93
2018-08-31T13:27:00.193Z,26.10
2018-08-31T13:29:28.637Z,29.35
2018-08-31T13:31:57.051Z,30.55
2018-08-31T13:34:25.500Z,27.22
2018-08-31T13:36:53.903Z,26.40
2018-08-31T13:39:22.257Z,34.53
2018-08-31T13:41:50.741Z,30.30
2018-08-31T13:44:19.126Z,25.50
2018-08-31T13:46:47.579Z,28.02
2018-08-31T13:49:15.978Z,29.45
2018-08-31T13:51:44.460Z,32.98
2018-08-31T13:54:12.953Z,30.25
2018-08-31T13:56:41.338Z,33.28
2018-08-31T13:59:09.798Z,34.63
2018-08-31T14:01:38.269Z,29.90
2018-08-31T14:04:06.757Z,31.07
2018-08-31T14:06:35.167Z,25.23
2018-08-31T14:09:05.456Z,26.77
2018-08-31T14:11:33.936Z,20.77
2018-08-31T14:14:02.349Z,27.27
2018-08-31T14:16:33.341Z,28.70
2018-08-31T14:19:01.866Z,26.10
2018-08-31T14:21:30.293Z,33.43
2018-08-31T14:23:58.671Z,27.00
2018-08-31T14:26:27.122Z,28.40
2018-08-31T14:28:55.539Z,31.45
2018-08-31T14:31:23.914Z,30.07
2018-08-31T14:33:52.373Z,34.33
2018-08-31T14:36:20.796Z,28.20
2018-08-31T14:38:49.195Z,26.07
2018-08-31T14:41:17.573Z,23.90
2018-08-31T14:43:45.978Z,30.27
2018-08-31T14:46:14.355Z,31.23
2018-08-31T14:48:42.850Z,31.33
2018-08-31T14:51:11.320Z,28.73
2018-08-31T14:53:39.667Z,19.90
2018-08-31T14:56:08.081Z,22.60
2018-08-31T14:58:36.509Z,23.70
2018-08-31T15:01:05.114Z,27.60
2018-08-31T15:03:33.652Z,24.60
2018-08-31T15:06:02.135Z,25.00
2018-08-31T15:08:30.499Z,22.13
2018-08-31T15:10:58.886Z,24.43
2018-08-31T15:13:27.273Z,23.63
2018-08-31T15:15:55.642Z,25.70
2018-08-31T15:18:24.117Z,27.23
2018-08-31T15:20:52.521Z,24.50
2018-08-31T15:23:21.054Z,27.60
2018-08-31T15:25:49.552Z,26.00
2018-08-31T15:28:18.022Z,24.60
2018-08-31T15:30:46.488Z,27.90
2018-08-31T15:33:14.870Z,29.57
2018-08-31T15:35:43.315Z,24.57
2018-08-31T15:38:11.694Z,32.00
2018-08-31T15:40:40.138Z,23.90
2018-08-31T15:43:08.610Z,23.10
2018-08-31T15:45:36.925Z,28.10
2018-08-31T15:48:05.494Z,27.37
2018-08-31T15:50:33.923Z,28.87
2018-08-31T15:53:02.433Z,31.37
2018-08-31T15:55:30.981Z,30.00
2018-08-31T15:57:59.642Z,29.80
2018-08-31T16:00:28.093Z,29.90
2018-08-31T16:02:56.555Z,32.20
2018-08-31T16:05:24.950Z,28.43
2018-08-31T16:07:53.445Z,26.40
2018-08-31T16:10:21.831Z,29.33
2018-08-31T16:12:50.387Z,31.50
2018-08-31T16:15:18.889Z,35.13
2018-08-31T16:17:47.263Z,30.03
2018-08-31T16:20:15.672Z,30.93
2018-08-31T16:22:44.105Z,30.13
2018-08-31T16:25:12.608Z,32.83
2018-08-31T16:27:41.188Z,27.20
2018-08-31T16:30:09.622Z,32.67
2018-08-31T16:32:38.076Z,32.23
2018-08-31T16:35:06.590Z,33.83
2018-08-31T16:37:34.997Z,46.83
2018-08-31T16:40:03.398Z,34.13
2018-08-31T16:42:31.882Z,31.53
2018-08-31T16:45:00.307Z,38.40
2018-08-31T16:47:28.792Z,38.92
2018-08-31T16:49:57.491Z,35.78
2018-08-31T16:52:25.921Z,27.93
2018-08-31T16:54:54.293Z,44.85
2018-08-31T16:57:22.724Z,32.08
2018-08-31T16:59:51.079Z,26.90
2018-08-31T17:02:19.508Z,29.23
2018-08-31T17:04:48.034Z,34.20
2018-08-31T17:07:16.417Z,31.43
2018-08-31T17:09:44.850Z,28.33
2018-08-31T17:12:13.271Z,34.50
2018-08-31T17:14:41.789Z,32.40
2018-08-31T17:17:10.158Z,34.80
2018-08-31T17:19:38.621Z,30.30
2018-08-31T17:22:07.085Z,29.33
2018-08-31T17:24:35.567Z,36.70
2018-08-31T17:27:09.842Z,32.53
2018-08-31T17:29:46.372Z,32.93
2018-08-31T17:32:20.902Z,32.93
2018-08-31T17:36:57.038Z,32.40
2018-08-31T17:39:25.564Z,26.33
2018-08-31T17:41:53.974Z,30.47
2018-08-31T17:44:22.432Z,31.27
2018-08-31T17:46:50.866Z,30.80
2018-08-31T17:49:19.355Z,30.20
2018-08-31T17:51:47.853Z,29.67
2018-08-31T17:54:16.293Z,29.83
2018-08-31T17:56:44.713Z,32.30
2018-08-31T17:59:13.112Z,31.43
2018-08-31T18:01:41.589Z,32.13
2018-08-31T18:04:10.004Z,31.00
2018-08-31T18:06:38.424Z,42.80
2018-08-31T18:09:07.343Z,34.80
2018-08-31T18:11:35.762Z,31.33
2018-08-31T18:14:04.385Z,30.90
2018-08-31T18:16:32.952Z,32.93
2018-08-31T18:19:01.293Z,32.77
2018-08-31T18:21:29.766Z,35.27
2018-08-31T18:23:58.170Z,37.67
2018-08-31T18:26:26.623Z,38.80
2018-08-31T18:28:55.061Z,30.87
2018-08-31T18:31:23.556Z,36.07
2018-08-31T18:33:52.041Z,32.30
2018-08-31T18:36:20.434Z,32.07
2018-08-31T18:38:48.859Z,32.53
2018-08-31T18:41:17.353Z,37.70
2018-08-31T18:43:45.759Z,29.70
2018-08-31T18:46:14.196Z,30.10
2018-08-31T18:48:42.758Z,31.27
2018-08-31T18:51:11.158Z,35.10
2018-08-31T18:53:39.578Z,32.63
2018-08-31T18:56:08.016Z,35.67
2018-08-31T18:58:36.447Z,39.83
2018-08-31T19:01:04.843Z,31.50
2018-08-31T19:03:33.369Z,29.37
2018-08-31T19:06:01.909Z,33.37
2018-08-31T19:08:30.380Z,33.70
2018-08-31T19:10:59.244Z,31.70
2018-08-31T19:13:27.727Z,28.67
2018-08-31T19:16:02.892Z,33.77
2018-08-31T19:18:31.319Z,25.17
2018-08-31T19:20:59.749Z,36.00
2018-08-31T19:23:28.156Z,29.50
2018-08-31T19:25:56.536Z,26.47
2018-08-31T19:28:25.025Z,28.37
2018-08-31T19:30:53.637Z,31.70
2018-08-31T19:33:23.426Z,36.43
2018-08-31T19:35:52.040Z,25.93
2018-08-31T19:38:20.488Z,29.30
2018-08-31T19:40:49.103Z,31.93
2018-08-31T19:43:17.667Z,32.73
2018-08-31T19:45:46.120Z,37.80
2018-08-31T19:48:14.517Z,29.00
2018-08-31T19:50:42.928Z,27.87
2018-08-31T19:53:11.358Z,31.17
2018-08-31T19:55:39.870Z,25.87
2018-08-31T19:58:08.336Z,25.80
2018-08-31T20:00:36.845Z,33.65
2018-08-31T20:03:05.466Z,32.98
2018-08-31T20:05:33.926Z,25.17
2018-08-31T20:08:02.466Z,25.75
2018-08-31T20:10:30.939Z,24.20
2018-08-31T20:12:59.423Z,25.80
2018-08-31T20:15:28.026Z,30.33
2018-08-31T20:17:56.440Z,27.83
2018-08-31T20:20:24.877Z,26.97
2018-08-31T20:22:53.434Z,24.43
2018-08-31T20:25:21.913Z,27.10
2018-08-31T20:27:50.408Z,25.63
2018-08-31T20:30:18.875Z,28.13
2018-08-31T20:32:47.339Z,29.83
2018-08-31T20:35:15.705Z,27.07
2018-08-31T20:37:44.142Z,26.10
2018-08-31T20:40:12.585Z,23.93
2018-08-31T20:42:41.608Z,23.92
2018-08-31T20:45:10.077Z,25.73
2018-08-31T20:47:38.556Z,20.53
2018-08-31T20:50:07.056Z,26.20
2018-08-31T20:52:35.415Z,27.55
2018-08-31T20:55:03.857Z,26.65
2018-08-31T20:57:32.259Z,27.73
2018-08-31T21:00:00.673Z,26.70
2018-08-31T21:02:29.215Z,23.80
2018-08-31T21:04:57.694Z,26.17
2018-08-31T21:07:26.095Z,27.95
2018-08-31T21:09:54.503Z,28.32
2018-08-31T21:12:22.918Z,29.27
2018-08-31T21:14:51.350Z,22.75
2018-08-31T21:17:19.793Z,25.35
2018-08-31T21:19:48.245Z,24.27
2018-08-31T21:22:16.785Z,25.55
2018-08-31T21:24:45.171Z,26.95
2018-08-31T21:27:13.542Z,24.70
2018-08-31T21:29:41.906Z,31.05
2018-08-31T21:32:10.306Z,27.67
2018-08-31T21:34:38.627Z,26.10
2018-08-31T21:37:07.017Z,20.97
2018-08-31T21:39:35.544Z,28.42
2018-08-31T21:42:03.947Z,26.57
2018-08-31T21:44:32.342Z,22.55
2018-08-31T21:47:00.717Z,26.37
2018-08-31T21:49:29.061Z,29.48
2018-08-31T21:51:57.451Z,28.32
2018-08-31T21:54:25.933Z,23.70
2018-08-31T21:56:54.298Z,26.75
2018-08-31T21:59:22.939Z,21.15
2018-08-31T22:01:53.649Z,27.30
2018-08-31T22:04:22.792Z,29.02
2018-08-31T22:06:51.330Z,32.88
2018-08-31T22:09:19.828Z,35.43
2018-08-31T22:11:48.247Z,28.25
2018-08-31T22:14:16.682Z,32.45
2018-08-31T22:16:45.209Z,26.77
2018-08-31T22:19:13.596Z,32.63
2018-08-31T22:21:42.023Z,29.12
2018-08-31T22:24:10.507Z,29.27
2018-08-31T22:26:38.973Z,28.77
2018-08-31T22:29:07.336Z,25.97
2018-08-31T22:31:35.702Z,30.57
2018-08-31T22:34:04.164Z,25.37
2018-08-31T22:36:32.693Z,32.42
2018-08-31T22:39:01.107Z,32.58
2018-08-31T22:41:29.538Z,30.08
2018-08-31T22:43:57.898Z,32.42
2018-08-31T22:46:26.397Z,28.62
2018-08-31T22:48:54.761Z,32.60
2018-08-31T22:51:23.168Z,41.63
2018-08-31T22:53:51.570Z,43.10
2018-08-31T22:56:20.017Z,31.55
2018-08-31T22:58:48.394Z,39.48
2018-08-31T23:01:16.747Z,32.30
2018-08-31T23:03:47.988Z,34.35
2018-08-31T23:06:16.413Z,33.08
2018-08-31T23:08:44.750Z,28.95
2018-08-31T23:11:13.188Z,29.67
2018-08-31T23:13:43.210Z,44.93
2018-08-31T23:16:11.695Z,38.23
2018-08-31T23:18:40.334Z,39.42
2018-08-31T23:21:09.180Z,35.60
2018-08-31T23:23:43.244Z,39.95
2018-08-31T23:26:11.659Z,30.27
2018-08-31T23:28:40.042Z,31.33
2018-08-31T23:31:08.423Z,35.83
2018-08-31T23:33:36.831Z,47.55
2018-08-31T23:36:05.229Z,39.33
2018-08-31T23:38:33.701Z,46.58
2018-08-31T23:41:02.076Z,35.98
2018-08-31T23:43:30.457Z,38.35
2018-08-31T23:45:58.842Z,47.03
2018-08-31T23:48:27.237Z,39.10
2018-08-31T23:50:55.632Z,36.98
2018-08-31T23:53:24.013Z,42.93
2018-08-31T23:55:52.405Z,43.78
2018-08-31T23:58:20.784Z,52.60
